Ana Sayfa
METAR-TAF:

METAR-TAF

Havaalanları :

Trablus, Libya

Mitiga International Airport

Enlem: 32-54N, Boylam: 13-17E, yükseklik: 11 m

Güncel hava durumu gözlemi

Rapor saat 16:55 UTC de 11 dakika önce yapıldı.
Rüzgar doğudan 1 kt
Sıcaklık 16°C
Nem 82%
Basınç 1023 hPa
Görüş mesafesi: 8000 m
2500 ft yükseklikte az bulutlu

METAR: HLLM 141655Z 08001KT 8000 FEW025 16/13 Q1023

Saat: 19:06 (17:06 UTC)

Tahmin

Rapor saat 11:00 UTC de 6 saat ve 6 dakika önce yapıldı.
Ayın 14'si saat 12 UTC'den ayın 15'si saat 12 UTC'ye kadar geçerli Tahmin
Rüzgar batı/güneybatıdan 10 kt
Görüş mesafesi: 8000 m
2000 ft yükseklikte az bulutlu
7000 ft yükseklikte parçalı bulutlu
Dönüşüyor
ayın 14'si saat 18 UTC'den ayın 14'si saat 20 UTC'ye kadar
Rüzgar değişken yönden 2 kt
Dönüşüyor
ayın 15'si saat 03 UTC'den ayın 15'si saat 05 UTC'ye kadar
Rüzgar güneydan 10 kt

TAF: HLLM 141100Z 1412/1512 25010KT 8000 FEW020 SCT070 BECMG 1418/1420 VRB02KT BECMG 1503/1505 18010KT

4.000'den fazla havaalanı için hava durumu gözlemleri ve tahminleri (METAR ve TAF raporları).

Kullanılabilir istasyonlar harita üzerinde sarı ve kırmızı noktalarla gösterilir.

İstasyonun adını görmek için fareyi noktanın üzerinde gezdirin.

Sonrasında hava gözlem ve tahminlerini görmek için tıklayın.

Haritayı değiştirmek için: yaklaştırmak için siyah artı işaretli yeşil düğmeye ve uzaklaştırmak için de eksi işaretli düğmeye hızla tıklayın; bitişik haritalar için yeşil okları kullanın.


METAR-TAF: